createdAt,value
2022-12-25T00:01:32.306Z,92.88
2022-12-25T00:03:59.620Z,93.01
2022-12-25T00:06:26.757Z,92.92
2022-12-25T00:08:53.953Z,92.81
2022-12-25T00:11:21.453Z,93.17
2022-12-25T00:13:49.294Z,94.78
2022-12-25T00:16:17.737Z,94.30
2022-12-25T00:18:45.422Z,93.73
2022-12-25T00:21:13.317Z,93.49
2022-12-25T00:23:40.614Z,93.92
2022-12-25T00:26:09.921Z,94.28
2022-12-25T00:28:36.975Z,94.54
2022-12-25T00:31:12.399Z,94.77
2022-12-25T00:33:41.435Z,95.11
2022-12-25T00:36:09.925Z,95.03
2022-12-25T00:38:39.060Z,94.91
2022-12-25T00:41:11.295Z,94.29
2022-12-25T00:43:44.377Z,93.71
2022-12-25T00:46:13.245Z,93.58
2022-12-25T00:48:40.726Z,93.38
2022-12-25T00:51:11.547Z,93.96
2022-12-25T00:53:38.723Z,94.00
2022-12-25T00:56:08.404Z,95.08
2022-12-25T00:58:36.286Z,95.11
2022-12-25T01:01:04.060Z,94.86
2022-12-25T01:03:31.458Z,94.20
2022-12-25T01:06:01.144Z,93.40
2022-12-25T01:08:30.669Z,92.47
2022-12-25T01:11:02.798Z,92.06
2022-12-25T01:13:30.966Z,92.42
2022-12-25T01:15:58.389Z,92.34
2022-12-25T01:18:25.650Z,91.51
2022-12-25T01:20:52.718Z,92.01
2022-12-25T01:23:19.783Z,91.98
2022-12-25T01:25:46.664Z,92.53
2022-12-25T01:28:13.881Z,92.41
2022-12-25T01:30:47.442Z,92.45
2022-12-25T01:33:14.599Z,94.10
2022-12-25T01:35:42.186Z,94.71
2022-12-25T01:38:09.083Z,94.46
2022-12-25T01:40:36.041Z,94.27
2022-12-25T01:43:03.052Z,94.56
2022-12-25T01:45:32.810Z,95.40
2022-12-25T01:48:02.717Z,95.32
2022-12-25T01:50:29.853Z,95.79
2022-12-25T01:52:58.294Z,96.43
2022-12-25T01:55:26.958Z,96.52
2022-12-25T01:57:54.205Z,96.46
2022-12-25T02:00:21.227Z,97.41
2022-12-25T02:02:49.175Z,97.44
2022-12-25T02:05:21.502Z,97.63
2022-12-25T02:07:48.728Z,97.18
2022-12-25T02:10:15.896Z,97.38
2022-12-25T02:12:45.200Z,97.82
2022-12-25T02:15:15.846Z,97.24
2022-12-25T02:18:04.383Z,97.32
2022-12-25T02:20:59.892Z,98.07
2022-12-25T02:23:42.618Z,97.30
2022-12-25T02:26:09.514Z,97.56
2022-12-25T02:28:46.048Z,97.77
2022-12-25T02:31:39.056Z,96.80
2022-12-25T02:34:06.184Z,96.52
2022-12-25T02:36:50.402Z,97.38
2022-12-25T02:39:58.128Z,96.38
2022-12-25T02:43:20.599Z,96.19
2022-12-25T02:46:16.718Z,97.02
2022-12-25T02:49:11.326Z,97.27
2022-12-25T02:52:01.991Z,97.09
2022-12-25T02:54:53.326Z,96.83
2022-12-25T02:57:44.802Z,96.93
2022-12-25T03:00:32.215Z,96.40
2022-12-25T03:03:21.317Z,97.08
2022-12-25T03:06:08.148Z,97.44
2022-12-25T03:08:43.090Z,97.35
2022-12-25T03:11:31.214Z,97.25
2022-12-25T03:26:57.201Z,100.00
2022-12-25T03:29:44.586Z,100.00
2022-12-25T03:32:39.068Z,100.00
2022-12-25T03:35:44.339Z,100.00
2022-12-25T03:38:32.840Z,100.00
2022-12-25T03:41:34.963Z,100.00
2022-12-25T03:44:38.472Z,99.24
2022-12-25T03:47:22.076Z,98.91
2022-12-25T03:50:21.785Z,98.34
2022-12-25T03:53:10.024Z,97.53
2022-12-25T03:55:56.884Z,98.36
2022-12-25T03:58:44.188Z,98.02
2022-12-25T04:01:29.992Z,98.49
2022-12-25T04:04:15.721Z,97.62
2022-12-25T04:07:01.499Z,97.25
2022-12-25T04:09:46.780Z,96.90
2022-12-25T04:12:32.359Z,96.90
2022-12-25T04:15:18.114Z,97.77
2022-12-25T04:18:03.413Z,97.29
2022-12-25T04:20:49.106Z,97.90
2022-12-25T04:23:34.642Z,97.69
2022-12-25T04:26:20.393Z,97.42
2022-12-25T04:29:06.188Z,97.36
2022-12-25T04:31:51.856Z,97.10
2022-12-25T04:34:37.039Z,97.25
2022-12-25T04:37:04.063Z,97.50
2022-12-25T04:39:31.341Z,97.74
2022-12-25T04:41:59.500Z,98.62
2022-12-25T04:44:26.800Z,98.13
2022-12-25T04:46:53.820Z,98.17
2022-12-25T04:49:20.965Z,98.61
2022-12-25T04:51:47.947Z,97.60
2022-12-25T04:54:14.969Z,97.81
2022-12-25T04:56:45.837Z,98.41
2022-12-25T04:59:13.213Z,98.04
2022-12-25T05:01:40.594Z,98.10
2022-12-25T05:04:07.796Z,97.96
2022-12-25T05:06:34.941Z,98.15
2022-12-25T05:09:01.994Z,98.26
2022-12-25T05:11:29.153Z,98.68
2022-12-25T05:13:57.703Z,98.25
2022-12-25T05:16:26.456Z,98.03
2022-12-25T05:18:53.363Z,98.00
2022-12-25T05:21:20.780Z,98.03
2022-12-25T05:23:51.747Z,98.61
2022-12-25T05:26:23.027Z,98.90
2022-12-25T05:28:50.535Z,98.89
2022-12-25T05:31:17.992Z,98.91
2022-12-25T05:33:44.969Z,98.89
2022-12-25T05:36:13.141Z,98.92
2022-12-25T05:38:40.286Z,98.96
2022-12-25T05:41:07.640Z,99.13
2022-12-25T05:43:34.508Z,98.64
2022-12-25T05:46:08.990Z,98.94
2022-12-25T05:48:37.549Z,98.59
2022-12-25T05:51:10.476Z,98.48
2022-12-25T05:53:40.655Z,98.36
2022-12-25T05:56:09.417Z,98.46
2022-12-25T05:58:39.264Z,98.96
2022-12-25T06:01:16.760Z,100.00
2022-12-25T06:03:43.991Z,99.19
2022-12-25T06:06:11.983Z,93.08
2022-12-25T06:08:39.223Z,90.17
2022-12-25T06:11:08.000Z,87.66
2022-12-25T06:13:36.243Z,83.28
2022-12-25T06:16:08.241Z,78.96
2022-12-25T06:18:43.404Z,76.77
2022-12-25T06:21:12.629Z,76.35
2022-12-25T06:23:40.351Z,71.20
2022-12-25T06:26:10.490Z,67.32
2022-12-25T06:28:37.718Z,67.48
2022-12-25T06:31:14.844Z,69.08
2022-12-25T06:33:42.386Z,70.31
2022-12-25T06:36:12.661Z,67.60
2022-12-25T06:38:39.904Z,69.50
2022-12-25T06:41:10.608Z,71.17
2022-12-25T06:43:38.351Z,76.00
2022-12-25T06:46:07.772Z,78.32
2022-12-25T06:48:35.413Z,76.39
2022-12-25T06:51:03.668Z,72.97
2022-12-25T06:53:38.810Z,67.20
2022-12-25T06:56:15.652Z,65.79
2022-12-25T06:58:56.569Z,68.73
2022-12-25T07:01:43.725Z,70.89
2022-12-25T07:04:38.081Z,72.05
2022-12-25T07:07:09.350Z,71.74
2022-12-25T07:09:39.214Z,68.23
2022-12-25T07:12:11.862Z,65.26
2022-12-25T07:14:38.910Z,59.73
2022-12-25T07:17:06.345Z,56.47
2022-12-25T07:19:33.317Z,55.76
2022-12-25T07:22:00.320Z,54.72
2022-12-25T07:24:27.344Z,52.12
2022-12-25T07:26:54.323Z,51.05
2022-12-25T07:29:21.294Z,51.08
2022-12-25T07:31:48.359Z,49.51
2022-12-25T07:34:17.511Z,48.76
2022-12-25T07:36:44.601Z,52.16
2022-12-25T07:39:11.837Z,50.91
2022-12-25T07:41:38.781Z,52.75
2022-12-25T07:44:15.274Z,50.84
2022-12-25T07:46:42.297Z,51.85
2022-12-25T07:49:10.805Z,49.48
2022-12-25T07:51:37.940Z,50.16
2022-12-25T07:54:05.401Z,50.89
2022-12-25T07:56:33.268Z,51.22
2022-12-25T07:59:00.186Z,52.42
2022-12-25T08:01:27.934Z,53.74
2022-12-25T08:03:57.252Z,53.18
2022-12-25T08:06:29.828Z,54.32
2022-12-25T08:09:04.623Z,53.90
2022-12-25T08:11:31.642Z,53.21
2022-12-25T08:13:58.670Z,52.58
2022-12-25T08:16:25.779Z,51.78
2022-12-25T08:18:53.870Z,48.67
2022-12-25T08:21:21.004Z,48.21
2022-12-25T08:23:48.445Z,49.50
2022-12-25T08:26:21.599Z,53.80
2022-12-25T08:28:49.421Z,54.90
2022-12-25T08:31:19.490Z,59.66
2022-12-25T08:33:47.616Z,60.93
2022-12-25T08:36:15.854Z,64.12
2022-12-25T08:38:43.084Z,66.38
2022-12-25T08:41:11.177Z,68.21
2022-12-25T08:43:38.235Z,70.65
2022-12-25T08:46:06.436Z,70.81
2022-12-25T08:48:34.787Z,72.73
2022-12-25T08:51:02.434Z,72.90
2022-12-25T08:53:29.370Z,71.33
2022-12-25T08:56:01.244Z,69.13
2022-12-25T08:58:28.747Z,70.55
2022-12-25T09:00:56.323Z,63.83
2022-12-25T09:03:24.657Z,56.58
2022-12-25T09:05:52.676Z,52.71
2022-12-25T09:08:22.016Z,48.25
2022-12-25T09:10:49.432Z,46.96
2022-12-25T09:13:16.906Z,46.41
2022-12-25T09:15:43.875Z,44.29
2022-12-25T09:18:11.828Z,46.76
2022-12-25T09:20:39.002Z,43.78
2022-12-25T09:23:11.607Z,44.50
2022-12-25T09:25:40.786Z,44.11
2022-12-25T09:28:07.772Z,44.76
2022-12-25T09:30:34.950Z,45.35
2022-12-25T09:33:01.973Z,42.90
2022-12-25T09:35:28.909Z,42.26
2022-12-25T09:37:55.969Z,39.24
2022-12-25T09:40:28.145Z,36.67
2022-12-25T09:42:56.258Z,40.74
2022-12-25T09:45:30.181Z,40.40
2022-12-25T09:47:57.426Z,38.17
2022-12-25T09:50:33.509Z,39.92
2022-12-25T09:53:14.996Z,39.54
2022-12-25T09:55:50.378Z,37.10
2022-12-25T09:58:17.366Z,38.08
2022-12-25T10:00:54.097Z,37.42
2022-12-25T10:03:26.907Z,36.37
2022-12-25T10:06:21.420Z,34.78
2022-12-25T10:08:54.291Z,35.86
2022-12-25T10:11:43.456Z,34.38
2022-12-25T10:14:14.020Z,35.55
2022-12-25T10:17:19.336Z,36.64
2022-12-25T10:19:52.175Z,37.10
2022-12-25T10:22:50.108Z,38.48
2022-12-25T10:25:24.041Z,37.76
2022-12-25T10:27:53.046Z,36.45
2022-12-25T10:30:25.339Z,35.96
2022-12-25T10:32:55.288Z,35.84
2022-12-25T10:35:24.720Z,36.03
2022-12-25T10:38:06.581Z,36.30
2022-12-25T10:40:52.170Z,38.37
2022-12-25T10:43:25.716Z,38.14
2022-12-25T10:45:52.645Z,38.18
2022-12-25T10:48:30.774Z,36.65
2022-12-25T10:50:57.925Z,34.24
2022-12-25T10:53:27.239Z,33.68
2022-12-25T10:56:06.044Z,32.70
2022-12-25T10:58:34.337Z,33.86
2022-12-25T11:01:07.174Z,32.87
2022-12-25T11:03:44.953Z,31.70
2022-12-25T11:06:28.892Z,33.51
2022-12-25T11:08:59.630Z,34.50
2022-12-25T11:11:28.225Z,35.12
2022-12-25T11:13:58.973Z,36.49
2022-12-25T11:16:27.576Z,35.34
2022-12-25T11:18:55.383Z,35.82
2022-12-25T11:21:27.322Z,35.00
2022-12-25T11:24:17.873Z,34.78
2022-12-25T11:26:59.196Z,32.02
2022-12-25T11:29:49.246Z,32.02
2022-12-25T11:32:43.625Z,33.15
2022-12-25T11:35:17.479Z,32.03
2022-12-25T11:37:53.907Z,31.10
2022-12-25T11:40:29.271Z,32.13
2022-12-25T11:43:07.813Z,30.70
2022-12-25T11:45:41.860Z,30.76
2022-12-25T11:48:18.274Z,31.39
2022-12-25T11:51:11.651Z,30.12
2022-12-25T11:53:41.286Z,29.08
2022-12-25T11:56:11.881Z,27.32
2022-12-25T11:58:56.989Z,26.88
2022-12-25T12:01:55.281Z,28.38
2022-12-25T12:04:32.685Z,28.25
2022-12-25T12:07:13.725Z,29.46
2022-12-25T12:10:16.804Z,31.07
2022-12-25T12:13:11.575Z,29.39
2022-12-25T12:15:47.467Z,31.69
2022-12-25T12:18:23.256Z,32.96
2022-12-25T12:21:08.783Z,32.88
2022-12-25T12:23:56.523Z,34.70
2022-12-25T12:26:26.119Z,35.86
2022-12-25T12:28:57.021Z,34.87
2022-12-25T12:31:24.656Z,32.57
2022-12-25T12:33:59.933Z,34.57
2022-12-25T12:36:35.603Z,37.97
2022-12-25T12:39:05.315Z,40.58
2022-12-25T12:41:47.186Z,43.90
2022-12-25T12:44:16.187Z,43.79
2022-12-25T12:46:52.645Z,45.63
2022-12-25T12:49:29.604Z,46.71
2022-12-25T12:52:36.169Z,47.72
2022-12-25T12:55:09.495Z,48.75
2022-12-25T12:57:40.173Z,49.12
2022-12-25T13:00:10.048Z,48.78
2022-12-25T13:02:51.769Z,49.49
2022-12-25T13:05:18.662Z,49.48
2022-12-25T13:07:51.493Z,50.02
2022-12-25T13:10:27.363Z,49.16
2022-12-25T13:13:01.841Z,49.34
2022-12-25T13:15:32.805Z,50.04
2022-12-25T13:18:10.058Z,50.27
2022-12-25T13:20:40.191Z,51.01
2022-12-25T13:23:34.164Z,51.16
2022-12-25T13:26:06.481Z,51.59
2022-12-25T13:28:36.172Z,51.32
2022-12-25T13:31:21.804Z,51.38
2022-12-25T13:34:20.129Z,51.72
2022-12-25T13:36:47.129Z,52.37
2022-12-25T13:39:18.461Z,52.98
2022-12-25T13:42:09.607Z,53.94
2022-12-25T13:44:39.476Z,53.73
2022-12-25T13:47:18.790Z,53.88
2022-12-25T13:49:47.029Z,54.67
2022-12-25T13:52:16.997Z,55.42
2022-12-25T13:55:00.332Z,55.74
2022-12-25T13:57:37.288Z,56.10
2022-12-25T14:00:08.389Z,56.32
2022-12-25T14:02:39.541Z,56.75
2022-12-25T14:05:41.728Z,57.89
2022-12-25T14:08:22.920Z,58.92
2022-12-25T14:10:52.199Z,59.29
2022-12-25T14:13:22.840Z,59.90
2022-12-25T14:15:53.564Z,60.64
2022-12-25T14:18:23.309Z,60.51
2022-12-25T14:21:11.128Z,61.36
2022-12-25T14:23:43.770Z,62.17
2022-12-25T14:26:17.968Z,63.07
2022-12-25T14:29:23.641Z,62.84
2022-12-25T14:31:54.571Z,63.35
2022-12-25T14:34:24.397Z,63.96
2022-12-25T14:36:52.829Z,64.58
2022-12-25T14:39:38.017Z,65.16
2022-12-25T14:42:37.813Z,66.05
2022-12-25T14:45:32.290Z,67.81
2022-12-25T14:48:03.115Z,68.95
2022-12-25T14:50:37.454Z,69.44
2022-12-25T14:53:17.022Z,69.85
2022-12-25T14:55:48.348Z,70.41
2022-12-25T14:58:28.587Z,71.94
2022-12-25T15:00:57.451Z,72.10
2022-12-25T15:03:35.573Z,72.98
2022-12-25T15:06:20.844Z,72.79
2022-12-25T15:08:59.117Z,73.74
2022-12-25T15:11:26.563Z,74.00
2022-12-25T15:28:38.010Z,79.50
2022-12-25T15:31:17.824Z,79.24
2022-12-25T15:33:44.792Z,78.54
2022-12-25T15:36:11.694Z,78.12
2022-12-25T15:38:39.042Z,78.44
2022-12-25T15:41:37.681Z,78.73
2022-12-25T15:44:06.335Z,78.27
2022-12-25T15:46:34.685Z,78.23
2022-12-25T15:49:01.703Z,78.69
2022-12-25T15:51:28.665Z,78.94
2022-12-25T15:53:55.549Z,78.60
2022-12-25T15:56:23.932Z,78.47
2022-12-25T15:58:50.923Z,78.55
2022-12-25T16:01:19.755Z,78.83
2022-12-25T16:03:47.507Z,78.70
2022-12-25T16:06:18.747Z,79.40
2022-12-25T16:08:46.127Z,78.56
2022-12-25T16:11:12.993Z,78.66
2022-12-25T16:13:39.886Z,78.46
2022-12-25T16:16:07.210Z,78.42
2022-12-25T16:18:34.240Z,78.44
2022-12-25T16:21:01.279Z,77.90
2022-12-25T16:23:28.582Z,78.12
2022-12-25T16:25:55.358Z,77.58
2022-12-25T16:28:22.370Z,77.61
2022-12-25T16:30:49.377Z,77.75
2022-12-25T16:33:16.327Z,77.17
2022-12-25T16:35:44.165Z,77.36
2022-12-25T16:38:11.876Z,77.63
2022-12-25T16:40:38.899Z,77.37
2022-12-25T16:43:05.880Z,77.19
2022-12-25T16:45:37.938Z,77.20
2022-12-25T16:48:05.002Z,77.26
2022-12-25T16:50:31.909Z,78.27
2022-12-25T16:52:58.809Z,78.38
2022-12-25T16:55:30.016Z,78.31
2022-12-25T16:57:57.485Z,78.49
2022-12-25T17:00:24.409Z,79.18
2022-12-25T17:02:51.362Z,79.19
2022-12-25T17:05:18.654Z,79.86
2022-12-25T17:07:45.751Z,80.32
2022-12-25T17:10:13.277Z,80.26
2022-12-25T17:12:40.368Z,80.68
2022-12-25T17:15:08.184Z,80.69
2022-12-25T17:17:35.176Z,80.45
2022-12-25T17:20:01.996Z,80.21
2022-12-25T17:22:28.882Z,80.78
2022-12-25T17:24:55.741Z,80.01
2022-12-25T17:27:22.734Z,80.00
2022-12-25T17:29:49.914Z,80.02
2022-12-25T17:32:16.754Z,80.42
2022-12-25T17:34:43.706Z,80.21
2022-12-25T17:37:10.559Z,80.81
2022-12-25T17:39:40.167Z,81.52
2022-12-25T17:42:07.011Z,82.75
2022-12-25T17:44:36.528Z,82.78
2022-12-25T17:47:03.528Z,83.25
2022-12-25T17:49:30.456Z,84.71
2022-12-25T17:51:57.327Z,85.25
2022-12-25T17:54:24.208Z,84.79
2022-12-25T17:56:51.026Z,84.54
2022-12-25T17:59:23.231Z,85.24
2022-12-25T18:01:50.180Z,85.53
2022-12-25T18:04:17.134Z,84.88
2022-12-25T18:06:44.012Z,84.49
2022-12-25T18:09:12.187Z,83.54
2022-12-25T18:11:43.172Z,83.37
2022-12-25T18:14:13.585Z,83.84
2022-12-25T18:16:43.373Z,83.99
2022-12-25T18:19:11.763Z,83.42
2022-12-25T18:21:38.709Z,83.43
2022-12-25T18:24:06.619Z,83.98
2022-12-25T18:26:34.405Z,83.49
2022-12-25T18:29:01.619Z,82.95
2022-12-25T18:31:30.390Z,84.39
2022-12-25T18:33:58.318Z,83.91
2022-12-25T18:36:27.947Z,84.37
2022-12-25T18:38:56.359Z,84.96
2022-12-25T18:41:23.714Z,84.83
2022-12-25T18:43:54.195Z,84.65
2022-12-25T18:46:25.277Z,84.03
2022-12-25T18:48:53.941Z,84.68
2022-12-25T18:51:20.879Z,85.15
2022-12-25T18:53:47.865Z,83.71
2022-12-25T18:56:17.688Z,84.15
2022-12-25T18:58:46.438Z,84.67
2022-12-25T19:01:17.411Z,85.05
2022-12-25T19:03:45.331Z,84.72
2022-12-25T19:06:24.200Z,84.67
2022-12-25T19:08:51.370Z,84.63
2022-12-25T19:11:18.995Z,83.56
2022-12-25T19:13:46.213Z,84.34
2022-12-25T19:16:13.242Z,84.02
2022-12-25T19:18:40.478Z,83.84
2022-12-25T19:21:09.394Z,84.18
2022-12-25T19:23:38.140Z,84.52
2022-12-25T19:26:06.752Z,84.82
2022-12-25T19:28:34.313Z,84.24
2022-12-25T19:31:02.174Z,84.74
2022-12-25T19:33:31.634Z,84.78
2022-12-25T19:36:08.412Z,84.68
2022-12-25T19:38:35.678Z,84.47
2022-12-25T19:41:07.544Z,85.29
2022-12-25T19:43:37.212Z,84.95
2022-12-25T19:46:05.973Z,85.26
2022-12-25T19:48:33.671Z,85.56
2022-12-25T19:51:00.972Z,84.92
2022-12-25T19:53:29.788Z,85.15
2022-12-25T19:56:01.476Z,85.32
2022-12-25T19:58:29.789Z,85.26
2022-12-25T20:01:01.733Z,84.31
2022-12-25T20:03:28.973Z,84.66
2022-12-25T20:05:56.664Z,85.32
2022-12-25T20:08:24.285Z,85.01
2022-12-25T20:10:51.228Z,85.44
2022-12-25T20:13:18.779Z,85.05
2022-12-25T20:15:46.114Z,85.52
2022-12-25T20:18:13.444Z,86.24
2022-12-25T20:20:40.965Z,86.94
2022-12-25T20:23:08.096Z,87.10
2022-12-25T20:25:39.708Z,86.17
2022-12-25T20:28:06.771Z,87.25
2022-12-25T20:30:41.489Z,87.61
2022-12-25T20:33:08.786Z,88.93
2022-12-25T20:35:35.947Z,89.31
2022-12-25T20:38:03.305Z,89.68
2022-12-25T20:40:30.364Z,88.91
2022-12-25T20:42:57.233Z,89.74
2022-12-25T20:45:26.816Z,91.38
2022-12-25T20:47:53.958Z,90.24
2022-12-25T20:50:21.355Z,90.45
2022-12-25T20:52:48.349Z,90.19
2022-12-25T20:55:15.395Z,90.81
2022-12-25T20:57:42.431Z,91.99
2022-12-25T21:00:10.574Z,92.16
2022-12-25T21:02:42.839Z,91.86
2022-12-25T21:05:13.156Z,92.45
2022-12-25T21:07:40.068Z,93.02
2022-12-25T21:10:07.841Z,93.55
2022-12-25T21:12:35.072Z,93.44
2022-12-25T21:15:02.535Z,93.27
2022-12-25T21:17:29.538Z,94.59
2022-12-25T21:19:56.541Z,94.57
2022-12-25T21:22:26.780Z,95.13
2022-12-25T21:24:53.844Z,94.69
2022-12-25T21:27:20.931Z,95.31
2022-12-25T21:29:47.946Z,95.14
2022-12-25T21:32:33.196Z,94.27
2022-12-25T21:36:18.074Z,95.03
2022-12-25T21:39:09.097Z,96.30
2022-12-25T21:46:32.434Z,96.46
2022-12-25T21:49:00.927Z,96.17
2022-12-25T21:51:53.595Z,95.82
2022-12-25T21:54:23.784Z,96.11
2022-12-25T21:56:51.074Z,96.08
2022-12-25T22:02:20.970Z,96.84
2022-12-25T22:04:48.033Z,96.66
2022-12-25T22:07:17.953Z,96.27
2022-12-25T22:09:49.994Z,96.81
2022-12-25T22:12:37.732Z,96.44
2022-12-25T22:15:07.762Z,96.86
2022-12-25T22:18:01.426Z,96.78
2022-12-25T22:20:37.273Z,97.56
2022-12-25T22:23:04.945Z,97.77
2022-12-25T22:25:31.979Z,96.65
2022-12-25T22:27:59.885Z,96.40
2022-12-25T22:30:28.662Z,96.61
2022-12-25T22:32:56.317Z,97.32
2022-12-25T22:35:23.757Z,96.29
2022-12-25T22:37:50.920Z,96.74
2022-12-25T22:40:19.913Z,96.87
2022-12-25T22:42:47.470Z,97.65
2022-12-25T22:45:14.478Z,97.93
2022-12-25T22:47:42.022Z,98.12
2022-12-25T22:50:09.846Z,98.58
2022-12-25T22:52:38.284Z,98.65
2022-12-25T22:55:06.030Z,98.17
2022-12-25T22:57:33.098Z,97.47
2022-12-25T23:00:00.124Z,97.15
2022-12-25T23:02:27.374Z,97.01
2022-12-25T23:04:54.371Z,97.01
2022-12-25T23:07:21.297Z,96.39
2022-12-25T23:09:48.336Z,96.86
2022-12-25T23:12:33.707Z,97.31
2022-12-25T23:15:00.684Z,96.58
2022-12-25T23:17:46.136Z,97.07
2022-12-25T23:20:33.375Z,97.25
2022-12-25T23:23:19.708Z,98.02
2022-12-25T23:26:05.686Z,97.14
2022-12-25T23:28:51.596Z,97.26
2022-12-25T23:31:20.632Z,97.99
2022-12-25T23:33:47.626Z,97.77
2022-12-25T23:36:18.452Z,97.32
2022-12-25T23:38:47.551Z,97.55
2022-12-25T23:41:28.880Z,97.07
2022-12-25T23:43:55.814Z,97.27
2022-12-25T23:46:22.734Z,97.13
2022-12-25T23:48:49.571Z,97.30
2022-12-25T23:51:16.987Z,97.03
2022-12-25T23:53:43.798Z,96.94
2022-12-25T23:56:10.703Z,96.37
2022-12-25T23:58:37.893Z,97.10
